Maracaju, Brazil
Current Conditions -  °F | °C
As of 3:00 PM on Friday 28 Nov 2014 (Local Time) from SBCG Reporting Station
Thunderstorm Thunderstorm  
Wind Chill: 77°   Ceiling: 4500
Heat Index: 78°   Visibility: 6mi
Dew Point: 72°   Wind: 13mph
Humidity: 83%   Direction: 330°NNW
Pressure: 29.88"   Gusts: NA
Location:  21.61°S, 55.17°W
Report Text: SBCG 281800Z 33011KT 9999 TS VCSH BKN045 FEW050CB 25/22 Q1012
Loading
Personal Weather Stations






























Interactive Weather Map New forecast layout! Learn more

10-Day Weather Forecast

Advertisements
Track Severe Weather on mobile